Time;durP1;ratioP1;P1;durP2;ratioP2;P2;SDS_P1;SDS_P2;PMS_P1;PMS_P2;Temp;Humidity;BMP_temperature;BMP_pressure;BME280_temperature;BME280_humidity;BME280_pressure;Samples;Min_cycle;Max_cycle;Signal;HPM_P1;HPM_P2
2022/01/29 00:01:39;;;;;;;;;;;1.20;90.20;;;;;;5074792;28;19954;-87
2022/01/29 00:04:05;;;;;;;;;;;1.20;90.80;;;;;;5074787;28;20429;-87
2022/01/29 00:06:30;;;;;;;;;;;1.20;91.20;;;;;;5074966;28;20298;-87
2022/01/29 00:08:57;;;;;;;;;;;1.20;91.30;;;;;;5074103;28;19908;-87
2022/01/29 00:11:28;;;;;;;;;;;1.20;91.50;;;;;;5074586;28;19916;-87
2022/01/29 00:13:53;;;;;;;;;;;1.30;91.50;;;;;;5074785;28;19913;-87
2022/01/29 00:16:19;;;;;;;;;;;1.20;91.60;;;;;;5074760;28;19915;-87
2022/01/29 00:18:44;;;;;;;;;;;1.30;91.50;;;;;;5074362;28;19912;-87
2022/01/29 00:21:10;;;;;;;;;;;1.30;91.20;;;;;;5074111;28;19912;-87
2022/01/29 00:23:36;;;;;;;;;;;1.20;90.80;;;;;;5074179;28;20003;-87
2022/01/29 00:26:01;;;;;;;;;;;1.20;90.80;;;;;;5074580;28;20281;-87
2022/01/29 00:28:27;;;;;;;;;;;1.20;90.60;;;;;;5073808;28;20480;-87
2022/01/29 00:30:53;;;;;;;;;;;1.20;90.30;;;;;;5074119;28;19969;-87
2022/01/29 00:33:18;;;;;;;;;;;1.20;90.30;;;;;;5074115;28;20290;-87
2022/01/29 00:35:44;;;;;;;;;;;1.30;90.10;;;;;;5074309;28;19919;-87
2022/01/29 00:38:10;;;;;;;;;;;1.30;89.80;;;;;;5072508;28;19917;-87
2022/01/29 00:40:38;;;;;;;;;;;1.30;89.50;;;;;;5073988;28;20094;-87
2022/01/29 00:43:04;;;;;;;;;;;1.30;89.10;;;;;;5074237;28;19908;-87
2022/01/29 00:45:30;;;;;;;;;;;1.20;89.00;;;;;;5074140;28;19995;-87
2022/01/29 00:47:56;;;;;;;;;;;1.10;88.90;;;;;;5074152;28;19912;-87
2022/01/29 00:50:21;;;;;;;;;;;1.20;88.70;;;;;;5073751;28;19908;-87
2022/01/29 00:52:47;;;;;;;;;;;1.30;87.80;;;;;;5073702;28;20297;-87
2022/01/29 00:55:13;;;;;;;;;;;1.40;87.50;;;;;;5073663;28;19913;-87
2022/01/29 00:57:39;;;;;;;;;;;1.40;87.30;;;;;;5073735;28;19927;-87
2022/01/29 01:00:06;;;;;;;;;;;1.40;86.90;;;;;;5073673;28;19912;-87
2022/01/29 01:02:32;;;;;;;;;;;1.40;86.50;;;;;;5073273;28;20074;-87
2022/01/29 01:04:57;;;;;;;;;;;1.40;86.20;;;;;;5073134;28;19913;-87
2022/01/29 01:07:23;;;;;;;;;;;1.50;86.00;;;;;;5073034;28;19920;-87
2022/01/29 01:09:48;;;;;;;;;;;1.60;85.30;;;;;;5073410;28;19913;-87
2022/01/29 01:12:14;;;;;;;;;;;1.60;85.40;;;;;;5073675;28;19934;-87
2022/01/29 01:14:39;;;;;;;;;;;1.60;85.50;;;;;;5073648;28;19909;-86
2022/01/29 01:17:05;;;;;;;;;;;1.50;85.20;;;;;;5073009;28;19912;-87
2022/01/29 01:19:31;;;;;;;;;;;1.50;85.10;;;;;;5072488;28;19964;-87
2022/01/29 01:21:56;;;;;;;;;;;1.50;85.10;;;;;;5072827;28;20371;-87
2022/01/29 01:24:22;;;;;;;;;;;1.50;85.00;;;;;;5073237;28;19931;-87
2022/01/29 01:26:48;;;;;;;;;;;1.50;84.70;;;;;;5073486;28;19958;-87
2022/01/29 01:29:14;;;;;;;;;;;1.50;84.50;;;;;;5073319;28;19908;-87
2022/01/29 01:31:40;;;;;;;;;;;1.50;84.30;;;;;;5073050;28;19966;-87
2022/01/29 01:34:06;;;;;;;;;;;1.50;84.30;;;;;;5073361;28;19954;-87
2022/01/29 01:36:35;;;;;;;;;;;1.30;83.60;;;;;;5072591;28;20003;-88
2022/01/29 01:39:06;;;;;;;;;;;1.30;84.00;;;;;;5073807;28;19913;-87
2022/01/29 01:41:38;;;;;;;;;;;1.20;83.80;;;;;;5073006;28;19913;-87
2022/01/29 01:44:04;;;;;;;;;;;1.30;83.60;;;;;;5053479;28;19912;-87
2022/01/29 01:46:30;;;;;;;;;;;1.20;83.70;;;;;;5053452;28;19987;-88
2022/01/29 01:48:56;;;;;;;;;;;1.20;83.80;;;;;;5064085;28;20406;-87
2022/01/29 01:51:22;;;;;;;;;;;1.10;83.30;;;;;;5073166;28;19912;-87
2022/01/29 01:53:48;;;;;;;;;;;1.10;83.60;;;;;;5073138;28;20385;-88
2022/01/29 01:56:13;;;;;;;;;;;1.00;84.10;;;;;;5072780;28;19956;-87
2022/01/29 01:58:39;;;;;;;;;;;1.00;84.80;;;;;;5072854;28;19921;-87
2022/01/29 02:01:04;;;;;;;;;;;0.90;84.80;;;;;;5072737;28;20347;-87
2022/01/29 02:03:30;;;;;;;;;;;0.90;84.70;;;;;;5073042;28;19908;-87
2022/01/29 02:05:56;;;;;;;;;;;0.80;84.90;;;;;;5072400;28;19920;-88
2022/01/29 02:08:22;;;;;;;;;;;0.80;85.60;;;;;;5072688;28;20355;-87
2022/01/29 02:10:49;;;;;;;;;;;0.70;85.70;;;;;;5073235;28;19916;-87
2022/01/29 02:13:14;;;;;;;;;;;0.60;85.70;;;;;;5072595;28;19978;-87
2022/01/29 02:15:40;;;;;;;;;;;0.60;86.50;;;;;;5076448;28;20335;-87
2022/01/29 02:18:12;;;;;;;;;;;0.70;87.20;;;;;;5076548;28;19917;-87
2022/01/29 02:20:38;;;;;;;;;;;0.60;87.10;;;;;;5075542;28;19913;-87
2022/01/29 02:23:03;;;;;;;;;;;0.50;86.60;;;;;;5076057;28;19920;-87
2022/01/29 02:25:32;;;;;;;;;;;0.40;86.30;;;;;;5076600;28;20016;-87
2022/01/29 02:27:59;;;;;;;;;;;0.30;86.10;;;;;;5075457;28;19909;-87
2022/01/29 02:30:24;;;;;;;;;;;0.10;86.20;;;;;;5076504;28;19913;-87
2022/01/29 02:32:50;;;;;;;;;;;0.10;86.80;;;;;;5076764;28;19908;-87
2022/01/29 02:35:15;;;;;;;;;;;0.10;87.20;;;;;;5076099;28;20388;-87
2022/01/29 02:37:41;;;;;;;;;;;0.10;87.10;;;;;;5076338;28;19912;-87
2022/01/29 02:40:07;;;;;;;;;;;0.00;86.80;;;;;;5076609;28;19909;-87
2022/01/29 02:42:32;;;;;;;;;;;-3276.70;87.50;;;;;;5076592;28;19918;-87
2022/01/29 02:44:58;;;;;;;;;;;0.00;88.20;;;;;;5076172;28;19919;-87
2022/01/29 02:47:30;;;;;;;;;;;0.00;88.40;;;;;;5076468;28;19908;-87
2022/01/29 02:49:55;;;;;;;;;;;0.00;88.70;;;;;;5075492;28;20377;-87
2022/01/29 02:52:21;;;;;;;;;;;0.10;88.90;;;;;;5076378;28;19996;-87
2022/01/29 02:54:47;;;;;;;;;;;0.10;89.20;;;;;;5076062;28;19912;-87
2022/01/29 02:57:12;;;;;;;;;;;0.10;89.40;;;;;;5075698;28;19925;-87
2022/01/29 02:59:38;;;;;;;;;;;0.10;88.90;;;;;;5076159;28;19912;-87
2022/01/29 03:02:03;;;;;;;;;;;0.00;88.60;;;;;;5075870;28;20003;-87
2022/01/29 03:04:29;;;;;;;;;;;-3276.70;88.80;;;;;;5075813;28;19912;-87
2022/01/29 03:06:54;;;;;;;;;;;-3276.60;89.10;;;;;;5076361;28;19908;-87
2022/01/29 03:09:20;;;;;;;;;;;-3276.70;89.20;;;;;;5075642;28;19916;-87
2022/01/29 03:11:45;;;;;;;;;;;0.00;89.50;;;;;;5075556;28;19916;-87
2022/01/29 03:14:11;;;;;;;;;;;0.00;89.40;;;;;;5075979;28;20002;-87
2022/01/29 03:16:36;;;;;;;;;;;0.00;89.00;;;;;;5075918;28;19931;-87
2022/01/29 03:19:02;;;;;;;;;;;-3276.70;88.90;;;;;;5075386;28;20374;-87
2022/01/29 03:21:28;;;;;;;;;;;-3276.60;89.70;;;;;;5075597;28;19912;-87
2022/01/29 03:23:53;;;;;;;;;;;-3276.40;90.20;;;;;;5075805;28;20362;-87
2022/01/29 03:26:19;;;;;;;;;;;-3276.40;90.90;;;;;;5075074;28;20345;-87
2022/01/29 03:28:45;;;;;;;;;;;-3276.40;91.20;;;;;;5075287;28;19913;-87
2022/01/29 03:31:11;;;;;;;;;;;-3276.50;91.20;;;;;;5075684;28;19999;-87
2022/01/29 03:33:36;;;;;;;;;;;-3276.50;91.00;;;;;;5075538;28;20015;-87
2022/01/29 03:36:02;;;;;;;;;;;-3276.50;90.90;;;;;;5075604;28;19915;-87
2022/01/29 03:38:28;;;;;;;;;;;-3276.50;91.20;;;;;;5075154;28;20022;-87
2022/01/29 03:40:56;;;;;;;;;;;-3276.60;91.30;;;;;;5075738;28;19908;-87
2022/01/29 03:43:29;;;;;;;;;;;-3276.70;91.10;;;;;;5075487;28;19912;-87
2022/01/29 03:45:54;;;;;;;;;;;-3276.70;90.80;;;;;;5075644;28;19909;-87
2022/01/29 03:48:20;;;;;;;;;;;0.00;90.60;;;;;;5074971;28;19916;-87
2022/01/29 03:50:45;;;;;;;;;;;0.00;90.00;;;;;;5075046;28;19948;-87
2022/01/29 03:53:11;;;;;;;;;;;-3276.70;89.50;;;;;;5075296;28;19908;-87
2022/01/29 03:55:36;;;;;;;;;;;-3276.70;89.20;;;;;;5075262;28;19915;-87
2022/01/29 03:58:02;;;;;;;;;;;-3276.70;89.00;;;;;;5074614;28;20378;-87
2022/01/29 04:00:27;;;;;;;;;;;0.00;88.80;;;;;;5075137;28;20289;-87
2022/01/29 04:02:53;;;;;;;;;;;0.00;88.70;;;;;;5075090;28;19916;-87
2022/01/29 04:05:19;;;;;;;;;;;0.00;88.60;;;;;;5074304;28;20363;-87
2022/01/29 04:07:44;;;;;;;;;;;0.00;88.40;;;;;;5075030;28;19908;-87
2022/01/29 04:10:12;;;;;;;;;;;0.00;88.20;;;;;;5074933;28;19908;-87
2022/01/29 04:12:42;;;;;;;;;;;0.00;87.90;;;;;;5074258;28;19918;-87
2022/01/29 04:15:08;;;;;;;;;;;0.00;87.30;;;;;;5074824;28;20007;-87
2022/01/29 04:17:34;;;;;;;;;;;0.00;87.20;;;;;;5074937;28;19940;-87
2022/01/29 04:20:00;;;;;;;;;;;0.00;86.70;;;;;;5074731;28;20009;-87
2022/01/29 04:22:25;;;;;;;;;;;-3276.70;86.50;;;;;;5074652;28;19908;-87
2022/01/29 04:24:51;;;;;;;;;;;-3276.60;86.20;;;;;;5074862;28;19915;-87
2022/01/29 04:27:20;;;;;;;;;;;-3276.60;86.40;;;;;;5073973;28;20331;-87
2022/01/29 04:29:56;;;;;;;;;;;-3276.60;86.00;;;;;;5074474;28;19908;-88
2022/01/29 04:32:31;;;;;;;;;;;-3276.40;85.80;;;;;;5074433;28;19909;-87
2022/01/29 04:34:57;;;;;;;;;;;-3276.50;86.30;;;;;;5074301;28;19912;-87
2022/01/29 04:37:22;;;;;;;;;;;-3276.50;86.90;;;;;;5073038;28;19922;-87
2022/01/29 04:39:48;;;;;;;;;;;-3276.50;87.20;;;;;;5073961;28;19919;-87
2022/01/29 04:42:13;;;;;;;;;;;-3276.50;87.30;;;;;;5072721;28;20328;-87
2022/01/29 04:44:39;;;;;;;;;;;-3276.50;87.30;;;;;;5074229;28;19995;-87
2022/01/29 04:47:04;;;;;;;;;;;-3276.50;87.20;;;;;;5073783;28;20324;-87
2022/01/29 04:49:30;;;;;;;;;;;-3276.60;87.10;;;;;;5074121;28;19961;-87
2022/01/29 04:51:55;;;;;;;;;;;-3276.50;86.70;;;;;;5073969;28;20255;-87
2022/01/29 04:54:21;;;;;;;;;;;-3276.40;86.90;;;;;;5073711;28;19913;-87
2022/01/29 04:56:46;;;;;;;;;;;-3276.30;87.00;;;;;;5073801;28;20281;-87
2022/01/29 04:59:12;;;;;;;;;;;-3276.20;87.00;;;;;;5073620;28;19920;-87
2022/01/29 05:01:39;;;;;;;;;;;-3276.10;87.10;;;;;;5073480;28;19920;-87
2022/01/29 05:04:04;;;;;;;;;;;-3276.10;87.20;;;;;;5073878;28;19999;-87
2022/01/29 05:06:30;;;;;;;;;;;-3276.20;86.90;;;;;;5073941;28;20443;-87
2022/01/29 05:08:55;;;;;;;;;;;-3276.20;86.80;;;;;;5073623;28;20352;-87
2022/01/29 05:11:21;;;;;;;;;;;-3276.30;86.50;;;;;;5073767;28;20374;-87
2022/01/29 05:13:46;;;;;;;;;;;-3276.40;86.30;;;;;;5073395;28;20340;-87
2022/01/29 05:26:58;;;;;;;;;;;-3276.50;83.80;;;;;;5073526;28;20019;-87
2022/01/29 05:29:26;;;;;;;;;;;-3276.30;85.20;;;;;;5073145;28;19920;-87
2022/01/29 05:31:52;;;;;;;;;;;-3276.00;86.70;;;;;;5073099;28;19917;-87
2022/01/29 05:34:21;;;;;;;;;;;-3276.00;87.70;;;;;;5072749;28;20293;-87
2022/01/29 05:36:46;;;;;;;;;;;-3276.10;88.30;;;;;;5073357;28;19999;-87
2022/01/29 05:39:12;;;;;;;;;;;-3276.10;89.10;;;;;;5072987;28;19999;-87
2022/01/29 05:41:38;;;;;;;;;;;-3276.10;89.40;;;;;;5073017;28;19943;-87
2022/01/29 05:44:03;;;;;;;;;;;-3276.10;89.60;;;;;;5073024;28;20396;-87
2022/01/29 05:46:29;;;;;;;;;;;-3276.10;89.50;;;;;;5072558;28;19919;-87
2022/01/29 05:48:54;;;;;;;;;;;-3276.10;89.40;;;;;;5072462;28;20003;-87
2022/01/29 05:51:20;;;;;;;;;;;-3276.00;89.00;;;;;;5072940;28;19952;-87
2022/01/29 05:53:45;;;;;;;;;;;-3276.00;88.80;;;;;;5072746;28;20000;-87
2022/01/29 05:56:11;;;;;;;;;;;-3275.90;88.80;;;;;;5072258;28;19944;-87
2022/01/29 05:58:37;;;;;;;;;;;-3275.90;89.70;;;;;;5064291;22;20007;-87
2022/01/29 06:01:04;;;;;;;;;;;-3275.80;89.60;;;;;;5051528;28;20465;-87
2022/01/29 06:03:30;;;;;;;;;;;-3275.80;89.20;;;;;;5052471;28;19916;-87
2022/01/29 06:05:55;;;;;;;;;;;-3275.70;89.60;;;;;;5051916;28;19913;-87
2022/01/29 06:08:21;;;;;;;;;;;-3275.70;89.90;;;;;;5052480;28;19912;-87
2022/01/29 06:10:47;;;;;;;;;;;-3275.70;90.00;;;;;;5052268;28;19913;-87
2022/01/29 06:13:14;;;;;;;;;;;-3275.60;89.70;;;;;;5052604;28;19912;-87
2022/01/29 06:15:42;;;;;;;;;;;-3275.60;89.50;;;;;;5051422;28;20430;-87
2022/01/29 06:18:15;;;;;;;;;;;-3275.70;89.20;;;;;;5052106;28;20395;-87
2022/01/29 06:20:42;;;;;;;;;;;-3275.70;88.70;;;;;;5045208;28;19913;-87
2022/01/29 06:23:09;;;;;;;;;;;-3275.80;88.30;;;;;;5052650;28;19986;-87
2022/01/29 06:25:34;;;;;;;;;;;-3275.90;87.90;;;;;;5052736;28;19908;-88
2022/01/29 06:28:00;;;;;;;;;;;-3275.90;88.10;;;;;;5052359;28;19913;-87
2022/01/29 06:30:25;;;;;;;;;;;-3275.80;87.80;;;;;;5052010;28;19912;-87
2022/01/29 06:32:51;;;;;;;;;;;-3275.90;87.70;;;;;;5052131;28;20286;-88
2022/01/29 06:35:16;;;;;;;;;;;-3275.90;87.20;;;;;;5051283;28;20298;-87
2022/01/29 06:37:42;;;;;;;;;;;-3275.80;87.40;;;;;;5050556;28;20366;-88
2022/01/29 06:40:08;;;;;;;;;;;-3275.80;87.10;;;;;;5050468;28;20409;-88
2022/01/29 06:42:34;;;;;;;;;;;-3275.80;87.40;;;;;;5050898;28;19917;-87
2022/01/29 06:45:00;;;;;;;;;;;-3276.00;88.00;;;;;;5051013;28;19944;-87
2022/01/29 06:47:25;;;;;;;;;;;-3276.00;88.10;;;;;;5050695;28;20385;-88
2022/01/29 06:49:51;;;;;;;;;;;-3276.00;87.60;;;;;;5051335;28;19913;-88
2022/01/29 06:52:16;;;;;;;;;;;-3276.00;87.10;;;;;;5051180;28;19935;-88
2022/01/29 06:54:42;;;;;;;;;;;-3275.90;87.60;;;;;;5051314;28;20288;-88
2022/01/29 06:57:08;;;;;;;;;;;-3276.00;87.70;;;;;;5049751;28;19927;-88
2022/01/29 06:59:33;;;;;;;;;;;-3276.30;87.60;;;;;;5050708;28;20301;-88
2022/01/29 07:01:59;;;;;;;;;;;-3276.50;86.80;;;;;;5053330;28;20310;-88
2022/01/29 07:04:24;;;;;;;;;;;-3276.70;86.90;;;;;;5052920;28;19913;-88
2022/01/29 07:06:50;;;;;;;;;;;0.00;85.80;;;;;;5047392;28;19920;-88
2022/01/29 07:09:16;;;;;;;;;;;-3276.70;85.50;;;;;;5054259;28;19916;-88
2022/01/29 07:11:43;;;;;;;;;;;-3276.70;84.80;;;;;;5053450;28;19913;-88
2022/01/29 07:14:15;;;;;;;;;;;0.00;84.70;;;;;;5053291;28;20285;-88
2022/01/29 07:16:40;;;;;;;;;;;0.00;84.60;;;;;;5035255;28;20008;-88
2022/01/29 07:19:06;;;;;;;;;;;0.20;84.40;;;;;;5054056;28;20007;-88
2022/01/29 07:21:31;;;;;;;;;;;0.20;83.80;;;;;;5053606;28;19934;-88
2022/01/29 07:23:57;;;;;;;;;;;0.30;83.60;;;;;;5053641;28;20125;-88
2022/01/29 07:26:22;;;;;;;;;;;0.30;83.70;;;;;;5053759;28;19920;-88
2022/01/29 07:28:48;;;;;;;;;;;0.40;83.60;;;;;;5054480;28;19913;-88
2022/01/29 07:31:13;;;;;;;;;;;0.50;83.70;;;;;;5061377;28;19917;-88
2022/01/29 07:33:39;;;;;;;;;;;0.40;83.30;;;;;;5049356;28;19925;-88
2022/01/29 07:36:05;;;;;;;;;;;0.30;83.30;;;;;;5054286;28;19921;-88
2022/01/29 07:38:30;;;;;;;;;;;0.50;83.80;;;;;;5054109;28;19921;-88
2022/01/29 07:40:56;;;;;;;;;;;0.60;83.30;;;;;;5054788;28;20359;-88
2022/01/29 07:43:21;;;;;;;;;;;0.70;83.10;;;;;;5035330;28;20299;-88
2022/01/29 07:45:47;;;;;;;;;;;0.80;83.10;;;;;;5052896;28;19919;-87
2022/01/29 07:48:13;;;;;;;;;;;0.90;83.30;;;;;;5053044;28;19912;-87
2022/01/29 07:50:38;;;;;;;;;;;1.20;83.20;;;;;;5054747;28;20004;-87
2022/01/29 07:53:04;;;;;;;;;;;1.20;81.50;;;;;;5053482;28;19912;-87
2022/01/29 07:55:30;;;;;;;;;;;1.20;81.50;;;;;;5054499;28;19971;-87
2022/01/29 07:57:56;;;;;;;;;;;1.10;82.20;;;;;;5053982;28;19932;-86
2022/01/29 08:00:22;;;;;;;;;;;1.20;81.70;;;;;;5053935;28;20478;-86
2022/01/29 08:02:48;;;;;;;;;;;1.30;81.40;;;;;;5053593;28;20004;-87
2022/01/29 08:05:13;;;;;;;;;;;1.30;81.30;;;;;;5054226;28;19931;-87
2022/01/29 08:07:39;;;;;;;;;;;1.40;81.60;;;;;;5053345;28;19984;-87
2022/01/29 08:10:05;;;;;;;;;;;1.50;81.50;;;;;;5053350;28;19956;-87
2022/01/29 08:12:30;;;;;;;;;;;1.70;81.60;;;;;;5053488;28;19917;-87
2022/01/29 08:14:56;;;;;;;;;;;1.80;81.30;;;;;;5063284;28;20378;-87
2022/01/29 08:17:21;;;;;;;;;;;1.80;81.30;;;;;;5054335;28;20045;-87
2022/01/29 08:19:49;;;;;;;;;;;1.80;81.00;;;;;;5054061;28;19952;-87
2022/01/29 08:22:15;;;;;;;;;;;1.90;81.60;;;;;;5050429;28;19913;-87
2022/01/29 08:24:41;;;;;;;;;;;1.90;81.50;;;;;;5053748;28;19920;-87
2022/01/29 08:27:06;;;;;;;;;;;2.00;80.90;;;;;;5052620;28;19971;-87
2022/01/29 08:29:32;;;;;;;;;;;2.10;80.70;;;;;;5052867;28;19921;-87
2022/01/29 08:31:57;;;;;;;;;;;2.20;79.90;;;;;;5054034;28;19919;-87
2022/01/29 08:34:23;;;;;;;;;;;2.40;79.10;;;;;;5053111;28;19970;-87
2022/01/29 08:36:49;;;;;;;;;;;2.50;78.30;;;;;;5052817;28;19913;-87
2022/01/29 08:39:14;;;;;;;;;;;2.60;77.40;;;;;;5034369;28;19970;-87
2022/01/29 08:41:40;;;;;;;;;;;2.70;76.60;;;;;;5051708;28;19916;-87
2022/01/29 08:44:05;;;;;;;;;;;2.80;75.20;;;;;;5053693;28;19995;-87
2022/01/29 08:46:31;;;;;;;;;;;3.00;76.00;;;;;;5052925;28;20271;-87
2022/01/29 08:48:56;;;;;;;;;;;3.00;75.60;;;;;;5052732;28;19921;-87
2022/01/29 08:51:22;;;;;;;;;;;3.00;75.80;;;;;;5052787;28;20329;-87
2022/01/29 08:53:48;;;;;;;;;;;3.10;74.70;;;;;;5053115;28;20482;-87
2022/01/29 08:56:16;;;;;;;;;;;3.10;75.10;;;;;;5044886;28;20374;-87
2022/01/29 08:58:41;;;;;;;;;;;3.20;75.70;;;;;;5053877;28;19944;-87
2022/01/29 09:01:08;;;;;;;;;;;3.20;74.70;;;;;;5052616;28;20306;-87
2022/01/29 09:03:33;;;;;;;;;;;3.40;73.80;;;;;;5052053;28;20029;-87
2022/01/29 09:06:00;;;;;;;;;;;3.40;74.20;;;;;;5047280;28;20410;-87
2022/01/29 09:08:26;;;;;;;;;;;3.40;73.40;;;;;;5051755;28;19913;-87
2022/01/29 09:10:56;;;;;;;;;;;3.60;72.10;;;;;;5051952;28;19934;-88
2022/01/29 09:13:22;;;;;;;;;;;3.70;71.70;;;;;;5050133;28;19921;-87
2022/01/29 09:15:48;;;;;;;;;;;3.90;70.90;;;;;;5051228;28;19912;-87
2022/01/29 09:18:13;;;;;;;;;;;4.00;70.00;;;;;;5052373;28;20341;-87
2022/01/29 09:20:39;;;;;;;;;;;4.10;70.00;;;;;;5052794;28;19943;-88
2022/01/29 09:23:05;;;;;;;;;;;4.30;70.30;;;;;;5051485;28;20310;-87
2022/01/29 09:25:31;;;;;;;;;;;4.40;69.80;;;;;;5051258;28;20003;-87
2022/01/29 09:27:57;;;;;;;;;;;4.40;68.40;;;;;;5054017;28;19912;-88
2022/01/29 09:30:23;;;;;;;;;;;4.40;69.10;;;;;;5051059;28;20002;-88
2022/01/29 09:32:48;;;;;;;;;;;4.50;69.60;;;;;;5029217;28;19917;-88
2022/01/29 09:35:14;;;;;;;;;;;4.50;69.70;;;;;;5045301;28;19917;-88
2022/01/29 09:37:39;;;;;;;;;;;4.50;69.00;;;;;;5044936;28;19913;-88
2022/01/29 09:40:05;;;;;;;;;;;4.50;68.20;;;;;;5048306;28;19924;-88
2022/01/29 09:42:31;;;;;;;;;;;4.50;68.10;;;;;;5050401;28;20358;-88
2022/01/29 09:44:57;;;;;;;;;;;4.70;68.00;;;;;;5051365;28;19920;-88
2022/01/29 09:47:23;;;;;;;;;;;5.00;66.50;;;;;;5051534;28;19916;-87
2022/01/29 09:49:50;;;;;;;;;;;5.10;64.60;;;;;;5052484;28;20255;-87
2022/01/29 09:52:15;;;;;;;;;;;5.10;63.60;;;;;;5051799;28;19928;-87
2022/01/29 09:54:45;;;;;;;;;;;5.10;62.90;;;;;;5052698;28;19913;-87
2022/01/29 09:57:10;;;;;;;;;;;5.20;63.00;;;;;;5034100;28;19967;-87
2022/01/29 09:59:36;;;;;;;;;;;5.30;63.30;;;;;;5052337;28;20374;-87
2022/01/29 10:02:02;;;;;;;;;;;5.40;63.50;;;;;;5052934;28;20027;-87
2022/01/29 10:04:29;;;;;;;;;;;5.50;62.50;;;;;;5050727;28;19996;-87
2022/01/29 10:07:15;;;;;;;;;;;5.50;62.30;;;;;;5051383;28;20011;-87
2022/01/29 10:09:40;;;;;;;;;;;5.60;64.20;;;;;;5046593;28;20377;-87
2022/01/29 10:12:22;;;;;;;;;;;5.80;64.20;;;;;;5051362;28;19912;-87
2022/01/29 10:14:59;;;;;;;;;;;5.90;64.00;;;;;;5050998;28;20358;-87
2022/01/29 10:17:39;;;;;;;;;;;6.00;63.20;;;;;;5044300;28;19991;-88
2022/01/29 10:20:09;;;;;;;;;;;6.10;62.10;;;;;;5051566;28;19966;-88
2022/01/29 10:22:35;;;;;;;;;;;6.20;59.80;;;;;;5051778;28;19913;-88
2022/01/29 10:25:04;;;;;;;;;;;6.30;59.70;;;;;;5051105;28;19909;-88
2022/01/29 10:27:29;;;;;;;;;;;6.40;59.50;;;;;;5031375;28;20123;-88
2022/01/29 10:29:58;;;;;;;;;;;6.50;59.60;;;;;;5048407;28;20044;-88
2022/01/29 10:32:25;;;;;;;;;;;6.70;59.20;;;;;;5052285;28;19917;-87
2022/01/29 10:34:54;;;;;;;;;;;6.90;56.70;;;;;;5052989;28;20553;-87
2022/01/29 10:37:21;;;;;;;;;;;6.90;58.60;;;;;;5055334;28;19909;-87
2022/01/29 10:39:46;;;;;;;;;;;6.90;58.60;;;;;;5049734;28;19939;-87
2022/01/29 10:42:13;;;;;;;;;;;6.80;58.70;;;;;;5037535;28;19983;-87
2022/01/29 10:44:43;;;;;;;;;;;6.90;59.60;;;;;;5052468;28;20409;-87
2022/01/29 10:47:09;;;;;;;;;;;7.00;57.70;;;;;;5055235;28;19913;-87
2022/01/29 10:49:35;;;;;;;;;;;7.10;57.70;;;;;;5052300;28;19919;-87
2022/01/29 10:52:04;;;;;;;;;;;7.20;57.60;;;;;;5054856;28;19912;-87
2022/01/29 10:54:30;;;;;;;;;;;7.40;58.60;;;;;;5046662;28;20448;-87
2022/01/29 10:57:06;;;;;;;;;;;7.50;56.70;;;;;;5052478;28;19975;-87
2022/01/29 10:59:33;;;;;;;;;;;7.60;55.90;;;;;;5052014;28;20040;-88
2022/01/29 11:02:03;;;;;;;;;;;7.80;56.80;;;;;;5055865;28;19913;-88
2022/01/29 11:04:30;;;;;;;;;;;7.90;56.10;;;;;;5053401;28;19947;-88
2022/01/29 11:06:58;;;;;;;;;;;8.10;54.40;;;;;;5055920;28;20319;-88
2022/01/29 11:09:25;;;;;;;;;;;8.30;53.70;;;;;;5055271;28;19916;-88
2022/01/29 11:11:51;;;;;;;;;;;8.50;54.90;;;;;;5056041;28;20281;-88
2022/01/29 11:14:18;;;;;;;;;;;8.70;54.80;;;;;;5055035;28;19932;-88
2022/01/29 11:16:45;;;;;;;;;;;8.90;52.90;;;;;;5056048;28;19917;-88
2022/01/29 11:19:11;;;;;;;;;;;9.10;53.80;;;;;;5055472;28;20011;-87
2022/01/29 11:21:37;;;;;;;;;;;9.00;48.50;;;;;;5055606;28;20007;-87
2022/01/29 11:24:03;;;;;;;;;;;8.90;48.30;;;;;;5055404;28;20003;-87
2022/01/29 11:26:30;;;;;;;;;;;9.00;49.90;;;;;;5055584;28;19913;-87
2022/01/29 11:29:14;;;;;;;;;;;9.00;50.90;;;;;;5055115;28;19947;-87
2022/01/29 11:31:39;;;;;;;;;;;9.00;51.70;;;;;;5055657;28;20260;-87
2022/01/29 11:34:07;;;;;;;;;;;9.20;53.10;;;;;;5055473;28;19966;-88
2022/01/29 11:36:48;;;;;;;;;;;9.30;52.00;;;;;;5055814;28;20019;-87
2022/01/29 11:39:24;;;;;;;;;;;9.40;54.10;;;;;;5054951;28;19917;-87
2022/01/29 11:42:08;;;;;;;;;;;9.60;53.00;;;;;;5055471;28;20275;-88
2022/01/29 11:44:34;;;;;;;;;;;9.60;52.40;;;;;;5054692;28;19917;-88
2022/01/29 11:47:18;;;;;;;;;;;9.90;52.50;;;;;;5054381;28;20286;-88
2022/01/29 11:49:44;;;;;;;;;;;10.10;51.90;;;;;;5035430;28;19917;-88
2022/01/29 11:52:23;;;;;;;;;;;10.30;50.50;;;;;;5035383;28;19915;-88
2022/01/29 11:55:02;;;;;;;;;;;10.50;51.30;;;;;;5035448;28;19909;-88
2022/01/29 11:57:28;;;;;;;;;;;10.70;49.00;;;;;;5035184;28;19921;-88
2022/01/29 11:59:53;;;;;;;;;;;10.80;48.80;;;;;;5045174;28;19924;-88
2022/01/29 12:02:19;;;;;;;;;;;11.20;49.50;;;;;;5054841;28;19958;-88
2022/01/29 12:05:00;;;;;;;;;;;11.70;49.10;;;;;;5055079;28;19963;-88
2022/01/29 12:07:38;;;;;;;;;;;12.20;45.70;;;;;;5055310;28;19912;-88
2022/01/29 12:10:07;;;;;;;;;;;12.70;44.40;;;;;;5054698;28;19909;-88
2022/01/29 12:12:42;;;;;;;;;;;13.10;43.00;;;;;;5054997;28;19912;-88
2022/01/29 12:15:10;;;;;;;;;;;13.70;42.70;;;;;;5054464;28;19954;-88
2022/01/29 12:17:47;;;;;;;;;;;14.20;40.70;;;;;;5054834;28;19913;-88
2022/01/29 12:20:17;;;;;;;;;;;14.50;39.50;;;;;;5054513;28;19968;-88
2022/01/29 12:22:43;;;;;;;;;;;14.90;39.70;;;;;;5054709;28;19943;-88
2022/01/29 12:25:10;;;;;;;;;;;15.10;38.80;;;;;;5054323;28;19999;-88
2022/01/29 12:27:53;;;;;;;;;;;15.20;38.80;;;;;;5054572;28;19963;-88
2022/01/29 12:30:23;;;;;;;;;;;15.30;39.00;;;;;;5054305;28;20019;-88
2022/01/29 12:33:04;;;;;;;;;;;15.80;36.50;;;;;;5054490;28;20275;-88
2022/01/29 12:35:32;;;;;;;;;;;16.20;36.30;;;;;;5034620;28;19920;-88
2022/01/29 12:37:58;;;;;;;;;;;16.40;35.80;;;;;;5039006;28;20000;-88
2022/01/29 12:40:25;;;;;;;;;;;16.40;36.90;;;;;;5054443;28;19999;-88
2022/01/29 12:42:58;;;;;;;;;;;16.30;36.10;;;;;;5054403;28;19909;-88
2022/01/29 12:45:25;;;;;;;;;;;16.60;36.50;;;;;;5054357;28;19963;-88
2022/01/29 12:47:50;;;;;;;;;;;16.40;36.20;;;;;;5054585;28;19916;-88
2022/01/29 12:50:20;;;;;;;;;;;16.30;36.90;;;;;;5054230;28;19931;-88
2022/01/29 12:52:45;;;;;;;;;;;16.80;35.90;;;;;;5035797;28;20271;-89
2022/01/29 12:55:12;;;;;;;;;;;17.00;35.70;;;;;;5054152;28;20019;-88
2022/01/29 12:57:43;;;;;;;;;;;17.30;34.90;;;;;;5053624;28;19920;-89
2022/01/29 13:00:16;;;;;;;;;;;17.30;34.30;;;;;;5052721;28;19917;-88
2022/01/29 13:02:42;;;;;;;;;;;17.00;34.70;;;;;;5053982;28;20351;-89
2022/01/29 13:05:08;;;;;;;;;;;16.40;35.90;;;;;;5053911;28;19909;-88
2022/01/29 13:07:36;;;;;;;;;;;16.10;36.60;;;;;;5053505;28;19913;-88
2022/01/29 13:10:03;;;;;;;;;;;16.20;36.30;;;;;;5053736;28;20282;-88
2022/01/29 13:12:36;;;;;;;;;;;16.00;37.40;;;;;;5054071;28;19940;-88
2022/01/29 13:15:01;;;;;;;;;;;16.00;38.30;;;;;;5053145;28;19916;-89
2022/01/29 13:17:27;;;;;;;;;;;16.30;37.80;;;;;;5053719;28;20060;-89
2022/01/29 13:19:53;;;;;;;;;;;16.70;36.40;;;;;;5053609;28;19912;-89
2022/01/29 13:22:19;;;;;;;;;;;16.70;36.40;;;;;;5053401;28;19912;-89
2022/01/29 13:24:47;;;;;;;;;;;16.50;36.00;;;;;;5053580;28;20363;-89
2022/01/29 13:27:14;;;;;;;;;;;16.40;36.50;;;;;;5053542;28;19912;-89
2022/01/29 13:29:40;;;;;;;;;;;16.50;35.40;;;;;;5053036;28;19913;-89
2022/01/29 13:32:07;;;;;;;;;;;16.60;35.70;;;;;;5053730;28;20274;-89
2022/01/29 13:34:34;;;;;;;;;;;16.40;35.70;;;;;;5053458;28;19909;-89
2022/01/29 13:37:00;;;;;;;;;;;16.50;35.30;;;;;;5053068;28;19967;-89
2022/01/29 13:39:26;;;;;;;;;;;16.30;35.70;;;;;;5053294;28;19940;-89
2022/01/29 13:42:09;;;;;;;;;;;15.90;36.90;;;;;;5053254;28;20017;-89
2022/01/29 13:44:35;;;;;;;;;;;15.90;36.90;;;;;;5052907;28;20062;-88
2022/01/29 13:47:07;;;;;;;;;;;15.60;37.10;;;;;;5053253;28;20329;-89
2022/01/29 13:49:33;;;;;;;;;;;15.50;37.60;;;;;;5053193;28;20365;-89
2022/01/29 13:51:58;;;;;;;;;;;16.00;36.60;;;;;;5053196;28;19956;-89
2022/01/29 13:54:24;;;;;;;;;;;16.10;37.30;;;;;;5052817;28;19913;-88
2022/01/29 13:56:49;;;;;;;;;;;16.10;36.90;;;;;;5061295;22;19912;-88
2022/01/29 13:59:17;;;;;;;;;;;16.00;38.30;;;;;;5032926;28;19932;-89
2022/01/29 14:01:46;;;;;;;;;;;16.30;37.40;;;;;;5032858;28;19909;-89
2022/01/29 14:04:25;;;;;;;;;;;16.80;35.80;;;;;;5033161;28;19913;-89
2022/01/29 14:06:56;;;;;;;;;;;17.30;35.40;;;;;;5032832;28;19909;-89
2022/01/29 14:09:27;;;;;;;;;;;17.20;35.80;;;;;;5033102;28;19917;-89
2022/01/29 14:11:55;;;;;;;;;;;16.70;35.60;;;;;;5033107;28;19909;-89
2022/01/29 14:14:22;;;;;;;;;;;16.30;36.80;;;;;;5033049;28;19948;-89
2022/01/29 14:16:47;;;;;;;;;;;16.40;37.30;;;;;;5032677;28;19992;-89
2022/01/29 14:19:17;;;;;;;;;;;16.70;36.20;;;;;;5032924;28;20471;-89
2022/01/29 14:21:43;;;;;;;;;;;16.60;35.50;;;;;;5033287;28;19932;-89
2022/01/29 14:24:09;;;;;;;;;;;16.50;35.80;;;;;;5031994;28;20379;-89
2022/01/29 14:26:34;;;;;;;;;;;16.60;35.70;;;;;;5032881;28;19913;-89